Time;durP1;ratioP1;P1;durP2;ratioP2;P2;SDS_P1;SDS_P2;PMS_P1;PMS_P2;Temp;Humidity;BMP_temperature;BMP_pressure;BME280_temperature;BME280_humidity;BME280_pressure;Samples;Min_cycle;Max_cycle;Signal;HPM_P1;HPM_P2
2022/12/03 00:00:08;;;;;;;47.80;24.93;;;;;;;-141.28;100.00;50365.53;5071480;28;20537;-77
2022/12/03 00:02:35;;;;;;;43.77;23.27;;;;;;;-141.28;100.00;50345.91;5071106;28;21019;-77
2022/12/03 00:05:02;;;;;;;43.33;23.53;;;;;;;-141.28;100.00;50334.13;5071788;28;20517;-80
2022/12/03 00:07:32;;;;;;;43.87;22.47;;;;;;;-141.28;100.00;50396.94;5071514;28;20482;-77
2022/12/03 00:10:00;;;;;;;44.37;23.63;;;;;;;-141.28;100.00;50393.03;5071938;28;20443;-77
2022/12/03 00:12:27;;;;;;;46.63;23.57;;;;;;;-141.28;100.00;50418.53;5070865;28;20914;-76
2022/12/03 00:14:54;;;;;;;42.53;22.67;;;;;;;-141.28;100.00;50440.13;5060089;28;20452;-77
2022/12/03 00:17:21;;;;;;;20.47;12.87;;;;;;;-141.28;100.00;50483.31;5065279;28;20447;-74
2022/12/03 00:19:49;;;;;;;18.60;11.17;;;;;;;-141.28;100.00;50459.75;5052085;28;20482;-78
2022/12/03 00:22:16;;;;;;;24.40;14.30;;;;;;;-141.28;100.00;50487.25;5051933;28;20519;-78
2022/12/03 00:24:44;;;;;;;32.67;16.47;;;;;;;-141.28;100.00;50536.31;5051600;28;20479;-75
2022/12/03 00:27:11;;;;;;;34.43;18.67;;;;;;;-141.28;100.00;50530.41;5051609;28;20479;-75
2022/12/03 00:29:38;;;;;;;26.23;15.00;;;;;;;-141.28;100.00;50514.72;5052031;28;20456;-78
2022/12/03 00:32:05;;;;;;;25.83;12.50;;;;;;;-141.28;100.00;50514.72;5052016;28;20444;-76
2022/12/03 00:34:32;;;;;;;16.83;10.20;;;;;;;-141.28;100.00;50434.25;5051930;28;20451;-75
2022/12/03 00:36:59;;;;;;;12.80;7.20;;;;;;;-141.28;100.00;50495.09;5051757;28;20509;-77
2022/12/03 00:39:26;;;;;;;13.70;8.20;;;;;;;-141.28;100.00;50451.91;5051228;28;20516;-73
2022/12/03 00:41:55;;;;;;;12.33;8.10;;;;;;;-141.28;100.00;50469.56;5057329;28;20447;-77
2022/12/03 00:44:23;;;;;;;14.50;8.60;;;;;;;-141.28;100.00;50424.44;5058339;28;20440;-77
2022/12/03 00:46:49;;;;;;;11.50;7.70;;;;;;;-141.28;100.00;50475.47;5038821;28;20573;-77
2022/12/03 00:49:17;;;;;;;11.63;7.60;;;;;;;-141.28;100.00;50469.56;5051287;28;20981;-75
2022/12/03 00:51:43;;;;;;;12.37;7.93;;;;;;;-141.28;100.00;50481.34;5051116;28;20455;-77
2022/12/03 00:54:10;;;;;;;12.77;8.23;;;;;;;-141.28;100.00;50436.19;5051483;28;20448;-76
2022/12/03 00:56:38;;;;;;;11.03;6.80;;;;;;;-141.28;100.00;50424.44;5051683;28;20463;-76
2022/12/03 00:59:06;;;;;;;10.63;7.33;;;;;;;-141.28;100.00;50014.22;5066525;28;20481;-75
2022/12/03 01:01:34;;;;;;;11.50;7.40;;;;;;;-141.28;100.00;50353.75;5072913;28;20438;-76
2022/12/03 01:04:01;;;;;;;9.50;6.70;;;;;;;-141.28;100.00;50349.84;5072122;28;20447;-76
2022/12/03 01:06:28;;;;;;;11.43;6.90;;;;;;;-141.28;100.00;50330.22;5074694;28;20482;-75
2022/12/03 01:08:55;;;;;;;10.03;6.40;;;;;;;-141.28;100.00;50298.81;5069474;28;20456;-76
2022/12/03 01:11:37;;;;;;;9.77;6.30;;;;;;;-141.28;100.00;50387.13;5083861;28;20439;-73
2022/12/03 01:14:07;;;;;;;10.10;6.53;;;;;;;-141.28;100.00;50336.09;5083437;28;20444;-71
2022/12/03 01:16:34;;;;;;;8.03;5.77;;;;;;;-141.28;100.00;50383.22;5069167;28;20443;-73
2022/12/03 01:19:01;;;;;;;9.83;6.20;;;;;;;-141.28;100.00;50345.91;5086659;28;20504;-73
2022/12/03 01:21:29;;;;;;;9.37;6.20;;;;;;;-141.28;100.00;50483.31;5089097;28;20474;-72
2022/12/03 01:23:56;;;;;;;7.97;5.40;;;;;;;-141.28;100.00;50557.91;5077960;28;20529;-78
2022/12/03 01:26:24;;;;;;;10.87;6.10;;;;;;;-141.28;100.00;50597.16;5073374;28;20478;-77
2022/12/03 01:28:51;;;;;;;10.70;5.47;;;;;;;-141.28;100.00;50632.50;5071924;28;20458;-74
2022/12/03 01:34:04;;;;;;;9.87;5.40;;;;;;;-141.28;100.00;50548.09;5048622;28;20543;-76
2022/12/03 01:36:33;;;;;;;9.60;5.70;;;;;;;-141.28;100.00;50605.00;5071592;28;20482;-76
2022/12/03 01:39:01;;;;;;;8.00;5.70;;;;;;;-141.28;100.00;50561.81;5054771;28;20447;-78
2022/12/03 01:41:28;;;;;;;10.73;5.70;;;;;;;-141.28;100.00;50654.09;5054672;28;20517;-75
2022/12/03 01:43:57;;;;;;;9.40;5.47;;;;;;;-141.28;100.00;50691.38;5064144;28;20825;-76
2022/12/03 01:46:31;;;;;;;9.07;5.17;;;;;;;-141.28;100.00;50681.56;5057910;28;20549;-76
2022/12/03 01:48:58;;;;;;;7.90;5.43;;;;;;;-141.28;100.00;50742.41;5065422;28;20445;-75
2022/12/03 01:51:26;;;;;;;8.07;5.20;;;;;;;-141.28;100.00;50777.75;5056712;28;20483;-79
2022/12/03 01:53:53;;;;;;;8.17;5.50;;;;;;;-141.28;100.00;50813.09;5065695;28;20980;-79
2022/12/03 01:56:21;;;;;;;8.10;5.10;;;;;;;-141.28;100.00;50842.53;5074089;28;20472;-78
2022/12/03 01:58:48;;;;;;;8.23;5.03;;;;;;;-141.28;100.00;50883.75;5074295;28;20447;-79
2022/12/03 02:01:17;;;;;;;8.20;5.27;;;;;;;-141.28;100.00;50817.03;5058686;28;20838;-75
2022/12/03 02:03:46;;;;;;;10.47;5.50;;;;;;;-141.28;100.00;50573.59;5058824;28;20958;-74
2022/12/03 02:06:16;;;;;;;9.13;5.57;;;;;;;-141.28;100.00;50828.78;5060203;28;20489;-77
2022/12/03 02:08:44;;;;;;;8.93;5.57;;;;;;;-141.28;100.00;50718.88;5074175;28;20864;-75
2022/12/03 02:11:19;;;;;;;6.70;4.63;;;;;;;-141.28;100.00;50817.03;5060633;28;20453;-76
2022/12/03 02:13:47;;;;;;;7.53;4.97;;;;;;;-141.28;100.00;50824.88;5071015;28;20533;-75
2022/12/03 02:16:15;;;;;;;9.93;4.90;;;;;;;-141.28;100.00;50777.75;5050329;28;20471;-79
2022/12/03 02:18:42;;;;;;;9.27;5.30;;;;;;;-141.28;100.00;50873.94;5054441;28;21035;-79
2022/12/03 02:21:19;;;;;;;8.30;5.57;;;;;;;-141.28;100.00;50868.06;5053018;28;20541;-76
2022/12/03 02:23:55;;;;;;;10.13;5.27;;;;;;;-141.28;100.00;50877.88;5053122;28;20500;-77
2022/12/03 02:26:23;;;;;;;9.30;5.97;;;;;;;-141.28;100.00;50891.63;5053923;28;20482;-79
2022/12/03 02:28:50;;;;;;;8.33;5.40;;;;;;;-141.28;100.00;50950.50;5054715;28;20866;-76
2022/12/03 02:31:18;;;;;;;11.80;5.87;;;;;;;-141.28;100.00;51001.56;5056305;28;20451;-76
2022/12/03 02:33:45;;;;;;;11.50;5.50;;;;;;;-141.28;100.00;51017.25;5056046;28;20485;-76
2022/12/03 02:36:13;;;;;;;8.13;5.73;;;;;;;-141.28;100.00;51034.94;5056721;28;20483;-77
2022/12/03 02:38:41;;;;;;;9.97;5.77;;;;;;;-141.28;100.00;51103.63;5061861;28;20564;-75
2022/12/03 02:42:33;;;;;;;8.77;5.73;;;;;;;-141.28;100.00;51150.75;5073058;28;20959;-75
2022/12/03 02:44:00;;;;;;;9.73;6.37;;;;;;;-141.28;100.00;51001.56;5084311;28;20443;-76
2022/12/03 02:46:29;;;;;;;9.57;6.20;;;;;;;-141.28;100.00;50844.50;5081688;28;20486;-75
2022/12/03 02:48:56;;;;;;;9.53;5.93;;;;;;;-141.28;100.00;51070.25;5091956;28;20451;-77
2022/12/03 02:51:23;;;;;;;10.47;6.07;;;;;;;-141.28;100.00;51135.03;5085418;28;20442;-76
2022/12/03 02:53:53;;;;;;;9.90;5.70;;;;;;;-141.28;100.00;51229.28;5074851;28;20451;-78
2022/12/03 02:56:22;;;;;;;7.17;5.37;;;;;;;-141.28;100.00;51252.84;5064657;28;20513;-76
2022/12/03 02:58:53;;;;;;;8.20;5.47;;;;;;;-141.28;100.00;51323.53;5071144;28;20821;-75
2022/12/03 03:01:21;;;;;;;8.43;5.07;;;;;;;-141.28;100.00;51296.03;5073995;28;20447;-77
2022/12/03 03:03:49;;;;;;;8.00;5.30;;;;;;;-141.28;100.00;51339.22;5072969;28;20427;-75
2022/12/03 03:06:18;;;;;;;8.63;5.60;;;;;;;-141.28;100.00;51329.41;5073495;28;20887;-75
2022/12/03 03:08:45;;;;;;;8.10;5.63;;;;;;;-141.28;100.00;51374.56;5072202;28;20843;-75
2022/12/03 03:11:13;;;;;;;8.30;5.13;;;;;;;-141.28;100.00;51378.50;5072641;28;20451;-77
2022/12/03 03:13:41;;;;;;;10.87;5.97;;;;;;;-141.28;100.00;51386.34;5071563;28;20434;-75
2022/12/03 03:16:10;;;;;;;10.37;5.67;;;;;;;-141.28;100.00;51425.63;5072862;28;20447;-78
2022/12/03 03:18:40;;;;;;;11.80;6.00;;;;;;;-141.28;100.00;51464.88;5072241;28;20438;-76
2022/12/03 03:21:08;;;;;;;7.87;5.60;;;;;;;-141.28;100.00;51492.38;5072526;28;20532;-75
2022/12/03 03:23:36;;;;;;;9.73;5.77;;;;;;;-141.28;100.00;51553.25;5069126;28;20520;-74
2022/12/03 03:26:06;;;;;;;9.40;5.70;;;;;;;-141.28;100.00;51535.56;5058173;28;20452;-74
2022/12/03 03:28:37;;;;;;;8.87;5.63;;;;;;;-141.28;100.00;51543.44;5064308;28;20862;-73
2022/12/03 03:31:06;;;;;;;7.83;5.07;;;;;;;-141.28;100.00;51637.69;5074680;28;20454;-75
2022/12/03 03:33:34;;;;;;;9.37;5.37;;;;;;;-141.28;100.00;51488.44;5057178;28;20446;-74
2022/12/03 03:36:03;;;;;;;10.63;5.20;;;;;;;-141.28;100.00;51565.03;5069899;28;20464;-75
2022/12/03 03:38:31;;;;;;;8.33;5.23;;;;;;;-141.28;100.00;51594.47;5064466;28;20447;-78
2022/12/03 03:41:01;;;;;;;7.33;4.80;;;;;;;-141.28;100.00;51339.22;5074008;28;20447;-75
2022/12/03 03:43:32;;;;;;;7.20;4.87;;;;;;;-141.28;100.00;51374.56;5075431;28;20442;-76
2022/12/03 03:45:59;;;;;;;8.03;5.07;;;;;;;-141.28;100.00;51610.19;5072390;28;20446;-76
2022/12/03 03:48:27;;;;;;;8.73;5.50;;;;;;;-141.28;100.00;51492.38;5072945;28;20486;-75
2022/12/03 03:50:55;;;;;;;8.67;5.00;;;;;;;-141.28;100.00;51539.50;5071692;28;20447;-77
2022/12/03 03:53:24;;;;;;;9.07;5.10;;;;;;;-141.28;100.00;51600.38;5072435;28;20832;-75
2022/12/03 03:55:51;;;;;;;7.37;4.70;;;;;;;-141.28;100.00;51563.06;5070649;28;20500;-77
2022/12/03 03:58:19;;;;;;;8.27;5.23;;;;;;;-141.28;100.00;51594.47;5071821;28;20450;-76
2022/12/03 04:00:47;;;;;;;7.20;4.77;;;;;;;-141.28;100.00;51614.13;5069989;28;20447;-77
2022/12/03 04:03:14;;;;;;;7.27;5.00;;;;;;;-141.28;100.00;51606.25;5070281;28;20451;-77
2022/12/03 04:05:41;;;;;;;7.57;4.90;;;;;;;-141.28;100.00;51633.75;5070975;28;20977;-75
2022/12/03 04:08:08;;;;;;;8.97;5.30;;;;;;;-141.28;100.00;51645.53;5057544;28;20918;-73
2022/12/03 04:13:21;;;;;;;7.57;5.20;;;;;;;-141.28;100.00;51490.41;5069500;28;20439;-78
2022/12/03 04:15:48;;;;;;;7.80;5.23;;;;;;;-141.28;100.00;50932.84;5071025;28;20454;-77
2022/12/03 04:23:41;;;;;;;7.57;5.13;;;;;;;-141.28;100.00;51186.09;5051196;28;20472;-76
2022/12/03 04:28:54;;;;;;;7.37;5.23;;;;;;;-141.28;100.00;51303.88;5051764;28;20469;-74
2022/12/03 04:36:50;;;;;;;8.03;5.10;;;;;;;-141.28;100.00;51248.91;5051683;28;20528;-76
2022/12/03 04:39:17;;;;;;;7.40;5.13;;;;;;;-141.28;100.00;51256.78;5066710;28;20450;-76
2022/12/03 04:41:46;;;;;;;8.20;5.20;;;;;;;-141.28;100.00;51339.22;5071506;28;20446;-76
2022/12/03 04:46:57;;;;;;;8.67;5.17;;;;;;;-141.28;100.00;51254.81;5055397;28;21024;-74
2022/12/03 04:49:25;;;;;;;7.20;4.73;;;;;;;-141.28;100.00;51268.56;5052109;28;20451;-76
2022/12/03 04:51:52;;;;;;;7.27;4.83;;;;;;;-141.28;100.00;51237.13;5051876;28;20451;-76
2022/12/03 04:54:21;;;;;;;7.70;5.13;;;;;;;-141.28;100.00;51144.88;5052541;28;20455;-75
2022/12/03 04:56:49;;;;;;;7.33;5.10;;;;;;;-141.28;100.00;51211.63;5052035;28;20458;-78
2022/12/03 04:59:17;;;;;;;8.40;5.20;;;;;;;-141.28;100.00;51197.88;5038898;28;20533;-75
2022/12/03 05:01:47;;;;;;;8.87;4.90;;;;;;;-141.28;100.00;51158.59;5051916;28;20450;-75
2022/12/03 05:04:15;;;;;;;5.93;4.30;;;;;;;-141.28;100.00;51131.13;5051646;28;20447;-76
2022/12/03 05:06:43;;;;;;;7.67;4.70;;;;;;;-141.28;100.00;51093.81;5051903;28;20443;-76
2022/12/03 05:09:11;;;;;;;6.67;4.37;;;;;;;-141.28;100.00;51095.78;5053125;28;20849;-78
2022/12/03 05:11:39;;;;;;;7.40;4.90;;;;;;;-141.28;100.00;51099.72;5056951;28;20451;-75
2022/12/03 05:14:08;;;;;;;9.83;5.33;;;;;;;-141.28;100.00;51170.38;5056137;28;20513;-75
2022/12/03 05:16:35;;;;;;;8.60;5.23;;;;;;;-141.28;100.00;51178.25;5055920;28;20842;-75
2022/12/03 05:19:03;;;;;;;8.07;5.10;;;;;;;-141.28;100.00;51193.94;5055503;28;20479;-74
2022/12/03 05:21:29;;;;;;;6.80;4.67;;;;;;;-141.28;100.00;51152.72;5062249;28;20468;-76
2022/12/03 05:23:55;;;;;;;8.17;4.87;;;;;;;-141.28;100.00;51221.44;5061050;28;20463;-75
2022/12/03 05:26:23;;;;;;;6.93;4.53;;;;;;;-141.28;100.00;51233.22;5068956;28;20208;-76
2022/12/03 05:28:50;;;;;;;8.33;4.93;;;;;;;-141.28;100.00;51276.41;5075117;28;20506;-77
2022/12/03 05:31:18;;;;;;;8.50;4.97;;;;;;;-141.28;100.00;51319.59;5073927;28;20451;-75
2022/12/03 05:33:45;;;;;;;7.67;4.73;;;;;;;-141.28;100.00;51339.22;5074881;28;20438;-76
2022/12/03 05:36:13;;;;;;;8.50;4.87;;;;;;;-141.28;100.00;51413.84;5073848;28;20867;-75
2022/12/03 05:38:40;;;;;;;7.57;5.33;;;;;;;-141.28;100.00;51396.16;5074302;28;20461;-75
2022/12/03 05:42:52;;;;;;;6.90;4.63;;;;;;;-141.28;100.00;51460.97;5074810;28;20451;-75
2022/12/03 05:43:55;;;;;;;9.03;4.97;;;;;;;-141.28;100.00;51347.09;5074380;28;20521;-78
2022/12/03 05:46:24;;;;;;;6.90;4.47;;;;;;;-141.28;100.00;51362.78;5074523;28;20957;-78
2022/12/03 05:48:51;;;;;;;7.00;4.77;;;;;;;-141.28;100.00;51351.00;5073873;28;20509;-77
2022/12/03 05:51:18;;;;;;;8.23;5.17;;;;;;;-141.28;100.00;51347.09;5074255;28;20454;-76
2022/12/03 05:53:45;;;;;;;7.13;4.93;;;;;;;-141.28;100.00;51390.28;5074173;28;20452;-76
2022/12/03 05:56:12;;;;;;;9.03;5.07;;;;;;;-141.28;100.00;51362.78;5074206;28;20450;-76
2022/12/03 05:58:39;;;;;;;10.63;4.83;;;;;;;-141.28;100.00;51362.78;5073112;28;20537;-76
2022/12/03 06:01:07;;;;;;;6.83;4.33;;;;;;;-141.28;100.00;51400.09;5074470;28;20439;-77
2022/12/03 06:03:35;;;;;;;7.93;4.80;;;;;;;-141.28;100.00;51445.25;5073583;28;20456;-75
2022/12/03 06:06:04;;;;;;;7.30;4.70;;;;;;;-141.28;100.00;51455.06;5062493;28;21031;-79
2022/12/03 06:08:31;;;;;;;8.03;4.87;;;;;;;-141.28;100.00;51451.16;5077061;28;20505;-75
2022/12/03 06:10:57;;;;;;;7.27;5.07;;;;;;;-141.28;100.00;51470.78;5069294;28;20509;-75
2022/12/03 06:13:24;;;;;;;6.77;4.63;;;;;;;-141.28;100.00;51457.03;5054524;28;21031;-77
2022/12/03 06:15:52;;;;;;;7.97;4.70;;;;;;;-141.28;100.00;51496.31;5059568;28;20442;-78
2022/12/03 06:18:19;;;;;;;8.80;4.77;;;;;;;-141.28;100.00;51472.75;5074385;28;20446;-77
2022/12/03 06:20:48;;;;;;;8.23;4.83;;;;;;;-141.28;100.00;51476.66;5072485;28;20450;-77
2022/12/03 06:23:15;;;;;;;6.30;4.30;;;;;;;-141.28;100.00;51468.81;5068849;28;20452;-75
2022/12/03 06:25:41;;;;;;;7.73;4.57;;;;;;;-141.28;100.00;51409.91;5054105;28;20523;-75
2022/12/03 06:28:09;;;;;;;9.40;4.47;;;;;;;-141.28;100.00;51417.78;5053873;28;20483;-78
2022/12/03 06:30:36;;;;;;;8.57;4.43;;;;;;;-141.28;100.00;51437.41;5064768;28;20968;-77
2022/12/03 06:33:03;;;;;;;7.90;4.83;;;;;;;-141.28;100.00;51398.13;5060087;28;20455;-79
2022/12/03 06:35:31;;;;;;;8.70;4.43;;;;;;;-141.28;100.00;51406.00;5061982;28;20466;-75
2022/12/03 06:37:59;;;;;;;9.43;4.67;;;;;;;-141.28;100.00;51378.50;5071457;28;20534;-76
2022/12/03 06:40:28;;;;;;;9.00;4.70;;;;;;;-141.28;100.00;51354.94;5073636;28;20465;-79
2022/12/03 06:42:55;;;;;;;6.83;4.47;;;;;;;-141.28;100.00;51250.88;5072466;28;20442;-76
2022/12/03 06:45:22;;;;;;;7.93;5.07;;;;;;;-141.28;100.00;51301.94;5073001;28;20447;-78
2022/12/03 06:47:49;;;;;;;9.07;4.67;;;;;;;-141.28;100.00;51241.06;5072849;28;20474;-76
2022/12/03 06:50:17;;;;;;;9.27;4.87;;;;;;;-141.28;100.00;51203.75;5073282;28;20451;-75
2022/12/03 06:52:46;;;;;;;8.57;5.57;;;;;;;-141.28;100.00;50636.41;5072255;28;20443;-77
2022/12/03 06:55:15;;;;;;;13.83;5.83;;;;;;;-141.28;100.00;50974.06;5060173;28;20451;-77
2022/12/03 06:57:42;;;;;;;8.93;5.80;;;;;;;-141.28;100.00;51064.38;5046956;28;20439;-76
2022/12/03 07:00:10;;;;;;;10.50;6.20;;;;;;;-141.28;100.00;51032.97;5072115;28;20773;-75
2022/12/03 07:02:37;;;;;;;11.97;6.73;;;;;;;-141.28;100.00;51060.44;5072830;28;20454;-75
2022/12/03 07:05:04;;;;;;;15.07;6.33;;;;;;;-141.28;100.00;51115.41;5072014;28;20450;-75
2022/12/03 07:07:32;;;;;;;14.83;7.70;;;;;;;-141.28;100.00;51131.13;5072730;28;20957;-76
2022/12/03 07:09:59;;;;;;;14.80;7.67;;;;;;;-141.28;100.00;51172.34;5072282;28;20520;-77
2022/12/03 07:12:28;;;;;;;15.23;7.07;;;;;;;-141.28;100.00;51142.91;5064562;28;20462;-75
2022/12/03 07:14:54;;;;;;;13.23;7.33;;;;;;;-141.28;100.00;51154.69;5067946;28;20453;-75
2022/12/03 07:17:22;;;;;;;15.50;7.13;;;;;;;-141.28;100.00;51133.09;5064235;28;20447;-76
2022/12/03 07:19:51;;;;;;;15.37;7.47;;;;;;;-141.28;100.00;51123.28;5053080;28;20451;-79
2022/12/03 07:22:18;;;;;;;19.10;7.23;;;;;;;-141.28;100.00;51121.31;5053044;28;20475;-78
2022/12/03 07:24:46;;;;;;;12.13;5.90;;;;;;;-141.28;100.00;51115.41;5055366;28;20988;-77
2022/12/03 07:27:13;;;;;;;9.93;5.63;;;;;;;-141.28;100.00;51068.28;5072933;28;20450;-76
2022/12/03 07:29:43;;;;;;;11.20;5.23;;;;;;;-141.28;100.00;51097.75;5055517;28;20502;-73
2022/12/03 07:32:10;;;;;;;17.90;6.53;;;;;;;-141.28;100.00;51007.44;5052705;28;20901;-76
2022/12/03 07:34:37;;;;;;;11.47;5.83;;;;;;;-141.28;100.00;51070.25;5053472;28;20440;-79
2022/12/03 07:37:04;;;;;;;10.80;5.90;;;;;;;-141.28;100.00;51050.63;5052708;28;20471;-75
2022/12/03 07:39:31;;;;;;;8.37;5.10;;;;;;;-141.28;100.00;51060.44;5056793;28;20451;-74
2022/12/03 07:41:58;;;;;;;10.27;5.80;;;;;;;-141.28;100.00;51115.41;5072453;28;20458;-79
2022/12/03 07:44:25;;;;;;;12.03;5.80;;;;;;;-141.28;100.00;51060.44;5053491;28;20454;-75
2022/12/03 07:46:54;;;;;;;14.37;7.03;;;;;;;-141.28;100.00;51080.06;5052115;28;20943;-78
2022/12/03 07:49:22;;;;;;;8.63;5.70;;;;;;;-141.28;100.00;51046.69;5053104;28;20490;-77
2022/12/03 07:51:53;;;;;;;7.83;5.10;;;;;;;-141.28;100.00;51001.56;5052524;28;20534;-77
2022/12/03 07:54:20;;;;;;;8.97;5.37;;;;;;;-141.28;100.00;50915.16;5052507;28;20923;-76
2022/12/03 07:56:48;;;;;;;11.90;6.17;;;;;;;-141.28;100.00;50938.72;5052357;28;20992;-76
2022/12/03 07:59:15;;;;;;;9.77;5.60;;;;;;;-141.28;100.00;50907.31;5051963;28;20608;-77
2022/12/03 08:01:42;;;;;;;9.83;5.20;;;;;;;-141.28;100.00;50856.28;5065188;28;20492;-78
2022/12/03 08:04:11;;;;;;;10.07;5.20;;;;;;;-141.28;100.00;50493.13;5052362;28;20519;-75
2022/12/03 08:06:38;;;;;;;9.87;5.40;;;;;;;-141.28;100.00;50726.72;5053060;28;20534;-77
2022/12/03 08:09:05;;;;;;;10.60;5.63;;;;;;;-141.28;100.00;50722.78;5061059;28;20482;-77
2022/12/03 08:11:33;;;;;;;7.77;5.30;;;;;;;-141.28;100.00;50675.69;5071945;28;20507;-75
2022/12/03 08:14:00;;;;;;;7.67;5.30;;;;;;;-141.28;100.00;50640.34;5054741;28;20444;-75
2022/12/03 08:16:31;;;;;;;12.80;5.53;;;;;;;-141.28;100.00;50603.06;5065141;28;20517;-75
2022/12/03 08:18:58;;;;;;;7.53;5.40;;;;;;;-141.28;100.00;50591.28;5067126;28;20428;-75
2022/12/03 08:21:34;;;;;;;7.27;5.40;;;;;;;-141.28;100.00;50479.38;5067520;28;20505;-76
2022/12/03 08:24:13;;;;;;;9.30;5.57;;;;;;;-141.28;100.00;50453.88;5067855;28;20510;-74
2022/12/03 08:26:43;;;;;;;13.27;6.00;;;;;;;-141.28;100.00;50412.66;5081199;28;20438;-75
2022/12/03 08:29:12;;;;;;;11.63;5.70;;;;;;;-141.28;100.00;50351.81;5072152;28;20490;-78
2022/12/03 08:31:40;;;;;;;14.87;7.17;;;;;;;-141.28;100.00;50214.41;5071452;28;20457;-82
2022/12/03 08:34:18;;;;;;;19.03;7.80;;;;;;;-141.28;100.00;50255.63;5071148;28;20446;-77
2022/12/03 08:36:56;;;;;;;12.93;7.93;;;;;;;-141.28;100.00;50126.09;5059388;28;20959;-76
2022/12/03 08:39:41;;;;;;;8.00;5.73;;;;;;;-141.28;100.00;50063.28;5070017;28;20487;-78
2022/12/03 08:45:38;;;;;;;9.93;6.47;;;;;;;-141.28;100.00;49957.31;5038730;28;20434;-77
2022/12/03 08:48:18;;;;;;;12.90;6.83;;;;;;;-141.28;100.00;49921.97;5046799;28;20489;-74
2022/12/03 08:50:46;;;;;;;11.60;6.83;;;;;;;-141.28;100.00;49921.97;5063564;28;20435;-74
2022/12/03 08:53:28;;;;;;;9.07;5.50;;;;;;;-141.28;100.00;49967.13;5071996;28;20541;-76
2022/12/03 08:55:57;;;;;;;9.13;5.60;;;;;;;-141.28;100.00;49984.78;5070514;28;20819;-75
2022/12/03 08:58:27;;;;;;;14.40;6.00;;;;;;;-141.28;100.00;50020.09;5071123;28;20525;-75
2022/12/03 09:01:00;;;;;;;8.87;5.77;;;;;;;-141.28;100.00;50004.41;5063688;28;20478;-78
2022/12/03 09:03:35;;;;;;;7.40;5.57;;;;;;;-141.28;100.00;50027.97;5064553;28;20434;-78
2022/12/03 09:06:02;;;;;;;14.13;6.67;;;;;;;-141.28;100.00;50026.00;5071084;28;20446;-76
2022/12/03 09:08:31;;;;;;;12.10;6.10;;;;;;;-141.28;100.00;50065.25;5057459;28;20495;-76
2022/12/03 09:10:58;;;;;;;10.80;6.27;;;;;;;-141.28;100.00;50043.66;5071142;28;20856;-77
2022/12/03 09:13:25;;;;;;;12.07;6.17;;;;;;;-141.28;100.00;50039.72;5069985;28;20521;-78
2022/12/03 09:15:52;;;;;;;7.87;4.07;;;;;;;-141.28;100.00;49906.28;5070331;28;20580;-77
2022/12/03 09:18:19;;;;;;;10.73;4.80;;;;;;;-141.28;100.00;49965.16;5057031;28;20521;-76
2022/12/03 09:20:46;;;;;;;7.73;4.70;;;;;;;-141.28;100.00;49929.81;5061218;28;20447;-77
2022/12/03 09:23:14;;;;;;;6.27;4.43;;;;;;;-141.28;100.00;49910.19;5062509;28;20827;-80
2022/12/03 09:25:42;;;;;;;7.30;4.67;;;;;;;-141.28;100.00;49912.16;5061468;28;20461;-76
2022/12/03 09:28:09;;;;;;;6.50;4.70;;;;;;;-141.28;100.00;49902.34;5053319;28;20523;-77
2022/12/03 09:30:36;;;;;;;12.77;5.53;;;;;;;-141.28;100.00;49902.34;5051178;28;20451;-77
2022/12/03 09:33:04;;;;;;;6.47;4.77;;;;;;;-141.28;100.00;49904.31;5051463;28;20891;-75
2022/12/03 09:35:30;;;;;;;8.20;5.87;;;;;;;-141.28;100.00;49896.47;5051034;28;20460;-76
2022/12/03 09:37:57;;;;;;;11.17;5.93;;;;;;;-141.28;100.00;49902.34;5051748;28;20916;-76
2022/12/03 09:40:25;;;;;;;9.40;6.13;;;;;;;-141.28;100.00;49549.13;5051577;28;20451;-76
2022/12/03 09:42:57;;;;;;;7.40;4.93;;;;;;;-141.28;100.00;49855.25;5051553;28;20501;-78
2022/12/03 09:45:24;;;;;;;9.77;6.90;;;;;;;-141.28;100.00;49865.06;5050790;28;20550;-76
2022/12/03 09:47:52;;;;;;;7.40;4.97;;;;;;;-141.28;100.00;49925.91;5051259;28;20807;-75
2022/12/03 09:50:24;;;;;;;6.57;4.83;;;;;;;-141.28;100.00;49823.84;5052489;28;20498;-75
2022/12/03 09:52:53;;;;;;;12.23;6.40;;;;;;;-141.28;100.00;49920.00;5039779;28;20956;-75
2022/12/03 09:55:23;;;;;;;8.27;5.47;;;;;;;-141.28;100.00;49931.78;5052755;28;20458;-77
2022/12/03 09:57:51;;;;;;;8.63;5.60;;;;;;;-141.28;100.00;49943.56;5054938;28;20463;-77
2022/12/03 10:00:22;;;;;;;10.20;5.90;;;;;;;-141.28;100.00;49918.06;5055883;28;20454;-75
2022/12/03 10:02:51;;;;;;;9.53;5.70;;;;;;;-141.28;100.00;49933.75;5054949;28;20439;-76
2022/12/03 10:05:21;;;;;;;8.93;5.93;;;;;;;-141.28;100.00;49920.00;5055113;28;20439;-78
2022/12/03 10:07:49;;;;;;;6.87;5.20;;;;;;;-141.28;100.00;49929.81;5054378;28;20883;-75
2022/12/03 10:10:19;;;;;;;19.33;6.40;;;;;;;-141.28;100.00;49953.38;5054307;28;20548;-75
2022/12/03 10:12:46;;;;;;;8.73;5.57;;;;;;;-141.28;100.00;49937.69;5054501;28;20450;-77
2022/12/03 10:15:16;;;;;;;13.53;6.53;;;;;;;-141.28;100.00;49992.63;5054212;28;20458;-78
2022/12/03 10:17:46;;;;;;;7.73;5.83;;;;;;;-141.28;100.00;50016.19;5053663;28;20455;-78
2022/12/03 10:20:15;;;;;;;8.20;5.57;;;;;;;-141.28;100.00;50006.38;5041601;28;20452;-77
2022/12/03 10:22:42;;;;;;;6.87;5.07;;;;;;;-141.28;100.00;50008.34;5054760;28;20544;-75
2022/12/03 10:25:11;;;;;;;7.10;5.27;;;;;;;-141.28;100.00;49988.69;5057841;28;20446;-76
2022/12/03 10:27:39;;;;;;;7.47;5.50;;;;;;;-141.28;100.00;49906.28;5059516;28;20522;-76
2022/12/03 10:30:16;;;;;;;9.43;6.03;;;;;;;-141.28;100.00;49886.66;5071952;28;20497;-74
2022/12/03 10:32:46;;;;;;;9.00;6.10;;;;;;;-141.28;100.00;49855.25;5054780;28;20451;-75
2022/12/03 10:35:16;;;;;;;10.50;6.43;;;;;;;-141.28;100.00;49825.81;5053787;28;20455;-77
2022/12/03 10:37:58;;;;;;;16.33;7.57;;;;;;;-141.28;100.00;49829.75;5060532;28;20867;-77
2022/12/03 10:40:27;;;;;;;17.23;10.27;;;;;;;-141.28;100.00;49819.94;5072967;28;20489;-79
2022/12/03 10:43:13;;;;;;;8.80;5.90;;;;;;;-141.28;100.00;49774.78;5073146;28;20518;-76
2022/12/03 10:45:41;;;;;;;8.00;5.50;;;;;;;-141.28;100.00;49784.59;5070262;28;20492;-74
2022/12/03 10:48:14;;;;;;;8.43;5.70;;;;;;;-141.28;100.00;49757.13;5073606;28;20694;-77
2022/12/03 10:50:50;;;;;;;9.60;5.73;;;;;;;-141.28;100.00;49733.56;5072638;28;21034;-74
2022/12/03 10:53:18;;;;;;;9.27;6.27;;;;;;;-141.28;100.00;49745.34;5073241;28;21045;-75
2022/12/03 10:55:47;;;;;;;11.40;6.83;;;;;;;-141.28;100.00;49725.72;5040750;28;20498;-75
2022/12/03 10:58:24;;;;;;;16.73;10.57;;;;;;;-141.28;100.00;49737.50;5066502;28;20447;-76
2022/12/03 11:00:53;;;;;;;14.77;7.67;;;;;;;-141.28;100.00;49643.31;5073113;28;20438;-78
2022/12/03 11:03:24;;;;;;;8.37;5.80;;;;;;;-141.28;100.00;49715.91;5072067;28;20450;-74
2022/12/03 11:05:54;;;;;;;10.40;6.17;;;;;;;-141.28;100.00;49757.13;5073078;28;20986;-76
2022/12/03 11:08:23;;;;;;;12.07;6.53;;;;;;;-141.28;100.00;49713.94;5072310;28;20454;-75
2022/12/03 11:10:58;;;;;;;8.97;5.60;;;;;;;-141.28;100.00;49604.06;5061678;28;21091;-75
2022/12/03 11:13:45;;;;;;;8.77;5.60;;;;;;;-141.28;100.00;49721.81;5069555;28;20454;-73
2022/12/03 11:16:12;;;;;;;12.73;6.90;;;;;;;-141.28;100.00;49682.56;5068768;28;20457;-74
2022/12/03 11:19:03;;;;;;;11.03;6.57;;;;;;;-141.28;100.00;49631.53;5083961;28;20508;-74
2022/12/03 11:21:31;;;;;;;11.60;6.57;;;;;;;-141.28;100.00;49607.97;5072347;28;20553;-75
2022/12/03 11:24:26;;;;;;;9.83;6.97;;;;;;;-141.28;100.00;49615.84;5078168;28;20454;-73
2022/12/03 11:27:23;;;;;;;13.87;7.10;;;;;;;-141.28;100.00;49525.56;5051833;28;20471;-72
2022/12/03 11:29:57;;;;;;;13.53;7.87;;;;;;;-141.28;100.00;49486.31;5070714;28;20478;-78
2022/12/03 11:33:01;;;;;;;12.10;7.97;;;;;;;-141.28;100.00;49494.16;5060226;28;20878;-74
2022/12/03 11:35:37;;;;;;;15.27;6.27;;;;;;;-141.28;100.00;49494.16;5029864;28;20466;-79
2022/12/03 11:38:37;;;;;;;14.27;7.80;;;;;;;-141.28;100.00;49498.09;5052443;28;20561;-75
2022/12/03 11:41:07;;;;;;;10.97;7.23;;;;;;;-141.28;100.00;49505.94;5047614;28;20458;-76